createdAt,value
2016-08-22T22:20:09.404Z,1023.74
2016-08-22T22:21:10.113Z,1023.73
2016-08-22T22:22:10.840Z,1023.77
2016-08-22T22:23:11.436Z,1023.71
2016-08-22T22:24:12.081Z,1023.72
2016-08-22T22:25:12.798Z,1023.7
2016-08-22T22:26:13.481Z,1023.7
2016-08-22T22:27:14.161Z,1023.71
2016-08-22T22:28:14.771Z,1023.69
2016-08-22T22:29:15.390Z,1023.63
2016-08-22T22:30:16.006Z,1023.64
2016-08-22T22:31:16.621Z,1023.64
2016-08-22T22:32:17.233Z,1023.64
2016-08-22T22:33:17.846Z,1023.63
2016-08-22T22:34:18.455Z,1023.63
2016-08-22T22:35:19.067Z,1023.59
2016-08-22T22:36:19.682Z,1023.6
2016-08-22T22:37:20.308Z,1023.58
2016-08-22T22:38:20.935Z,1023.59
2016-08-22T22:39:21.609Z,1023.64
2016-08-22T22:40:22.253Z,1023.62
2016-08-22T22:41:22.883Z,1023.62
2016-08-22T22:42:23.509Z,1023.61
2016-08-22T22:43:24.136Z,1023.64
2016-08-22T22:44:24.763Z,1023.6
2016-08-22T22:45:25.367Z,1023.64
2016-08-22T22:46:25.982Z,1023.56
2016-08-22T22:47:26.601Z,1023.58
2016-08-22T22:48:27.214Z,1023.59
2016-08-22T22:49:27.832Z,1023.55
2016-08-22T22:50:28.453Z,1023.54
2016-08-22T22:51:29.076Z,1023.56
2016-08-22T22:52:29.693Z,1023.57
2016-08-22T22:53:30.311Z,1023.58
2016-08-22T22:54:30.935Z,1023.59
2016-08-22T22:55:31.556Z,1023.58
2016-08-22T22:56:32.179Z,1023.59
2016-08-22T22:57:32.799Z,1023.6
2016-08-22T22:58:33.423Z,1023.61
2016-08-22T22:59:34.065Z,1023.63
2016-08-22T23:00:34.689Z,1023.59
2016-08-22T23:01:35.302Z,1023.61
2016-08-22T23:02:35.930Z,1023.61
2016-08-22T23:03:36.546Z,1023.62
2016-08-22T23:04:37.172Z,1023.61
2016-08-22T23:05:37.790Z,1023.58
2016-08-22T23:06:38.405Z,1023.59
2016-08-22T23:07:39.021Z,1023.63
2016-08-22T23:08:39.672Z,1023.64
2016-08-22T23:09:40.285Z,1023.65
2016-08-22T23:10:40.900Z,1023.67
2016-08-22T23:11:41.532Z,1023.7
2016-08-22T23:12:42.140Z,1023.7
2016-08-22T23:13:42.763Z,1023.68
2016-08-22T23:14:43.372Z,1023.74
2016-08-22T23:15:43.992Z,1023.72
2016-08-22T23:16:44.633Z,1023.71
2016-08-22T23:17:45.245Z,1023.74
2016-08-22T23:18:45.852Z,1023.69
2016-08-22T23:19:46.478Z,1023.77
2016-08-22T23:20:47.095Z,1023.77
2016-08-22T23:21:47.716Z,1023.81
2016-08-22T23:22:48.327Z,1023.74
2016-08-22T23:23:48.941Z,1023.79
2016-08-22T23:24:49.558Z,1023.76
2016-08-22T23:25:50.191Z,1023.83
2016-08-22T23:26:50.804Z,1023.74
2016-08-22T23:27:51.428Z,1023.8
2016-08-22T23:28:52.049Z,1023.77
2016-08-22T23:29:52.677Z,1023.79
2016-08-22T23:30:53.290Z,1023.75
2016-08-22T23:31:53.912Z,1023.77
2016-08-22T23:32:54.532Z,1023.79
2016-08-22T23:33:55.151Z,1023.81
2016-08-22T23:34:55.778Z,1023.81
2016-08-22T23:35:56.393Z,1023.83
2016-08-22T23:36:57.009Z,1023.83
2016-08-22T23:37:57.632Z,1023.83
2016-08-22T23:38:58.253Z,1023.81
2016-08-22T23:39:58.870Z,1023.84
2016-08-22T23:40:59.511Z,1023.85
2016-08-22T23:42:00.139Z,1023.89
2016-08-22T23:43:00.756Z,1023.91
2016-08-22T23:44:01.379Z,1023.86
2016-08-22T23:45:02.003Z,1023.83
2016-08-22T23:46:02.616Z,1023.81
2016-08-22T23:47:03.242Z,1023.8
2016-08-22T23:48:03.859Z,1023.83
2016-08-22T23:49:04.486Z,1023.8
2016-08-22T23:50:05.109Z,1023.82
2016-08-22T23:51:05.734Z,1023.87
2016-08-22T23:52:06.349Z,1023.84
2016-08-22T23:53:06.959Z,1023.81
2016-08-22T23:54:07.575Z,1023.77
2016-08-22T23:55:08.201Z,1023.77
2016-08-22T23:56:08.819Z,1023.75
2016-08-22T23:57:09.430Z,1023.67
2016-08-22T23:58:10.054Z,1023.71
2016-08-22T23:59:10.675Z,1023.71
